Latest Weather Observations for Mandurah

IDW60801

Issued at 10:35 pm WST Saturday 19 April 2014 (issued every 30 minutes, with the page automatically refreshed every 10 minutes)

About weather observations | Map of weather stations | Latest weather observations for WA | Other Formats
Station Details ID: 009977 Name: MANDURAH Lat: -32.52 Lon: 115.71 Height: 3.0 m
Data from the previous 72 hours. | See also: Recent months at Mandurah
Date/Time
WST
Temp
°C
App
Temp
°C
Dew
Point
Rel
Hum
%
Delta-T
°C
Wind Press
QNH
hPa
Press
MSL
hPa
Rain
since 9 am
mm
Dir
 
Spd
km/h
Gust
km/h
Spd
kts
Gust
kts
19/10:30pm 18.7 16.3 12.5 67 3.5 S 17 28 9 15 1015.1 - 0.0
19/10:00pm 19.0 16.0 12.7 67 3.5 S 20 33 11 18 1015.0 1015.0 0.0
19/09:30pm 19.3 17.2 13.7 70 3.2 S 17 24 9 13 1015.0 - 0.0
19/09:00pm 19.5 17.5 13.9 70 3.2 S 17 24 9 13 1015.2 1015.2 0.0
19/08:30pm 20.0 18.0 13.9 68 3.5 S 17 30 9 16 1015.2 - 0.0
19/08:00pm 20.5 17.9 13.7 65 3.9 S 20 28 11 15 1015.1 1015.1 0.0
19/07:30pm 20.6 18.6 14.0 66 3.8 S 17 28 9 15 1015.0 - 0.0
19/07:00pm 20.5 18.1 13.9 66 3.8 SSW 19 28 10 15 1014.8 1014.8 0.0
19/06:30pm 20.6 18.5 14.7 69 3.5 SSW 19 26 10 14 1014.8 - 0.0
19/06:00pm 20.6 18.4 14.3 67 3.7 SSW 19 26 10 14 1014.6 1014.6 0.0
19/05:30pm 21.0 18.9 13.7 63 4.2 SSW 17 28 9 15 1014.5 - 0.0
19/05:00pm 21.2 18.5 13.6 62 4.4 SSW 20 32 11 17 1014.4 1014.4 0.0
19/04:30pm 21.8 18.3 13.4 59 4.8 SSW 24 37 13 20 1014.3 - 0.0
19/04:00pm 22.0 18.0 13.1 57 5.1 SSW 26 37 14 20 1014.3 1014.3 0.0
19/03:30pm 22.2 18.4 12.5 54 5.5 SSW 24 37 13 20 1014.4 - 0.0
19/03:00pm 22.9 20.1 13.1 54 5.6 SSW 20 30 11 16 1014.5 1014.5 0.0
19/02:30pm 22.9 20.2 13.4 55 5.5 SSW 20 30 11 16 1014.5 - 0.0
19/02:00pm 23.0 20.4 13.8 56 5.4 SSW 20 30 11 16 1014.7 1014.7 0.0
19/01:30pm 23.4 21.6 13.3 53 5.8 SSW 15 22 8 12 1014.9 - 0.0
19/01:00pm 23.3 20.3 12.0 49 6.4 S 19 24 10 13 1015.3 1015.3 0.0
19/12:30pm 22.6 20.2 12.5 53 5.7 S 17 24 9 13 1015.9 - 0.0
19/12:00pm 22.3 19.7 12.0 52 5.8 SSW 17 24 9 13 1016.5 1016.5 0.0
19/11:30am 21.8 19.1 11.8 53 5.6 S 17 22 9 12 1017.0 - 0.0
19/11:00am 21.3 19.0 11.6 54 5.4 S 15 24 8 13 1017.4 1017.4 0.0
19/10:30am 20.4 19.0 12.1 59 4.6 S 11 19 6 10 1017.9 - 0.0
19/10:00am 19.4 17.7 12.4 64 3.9 S 13 19 7 10 1018.1 1018.1 0.0
19/09:30am 18.9 17.4 13.1 69 3.3 SSE 13 19 7 10 1018.5 - 0.0
19/09:00am 18.0 16.6 13.3 74 2.6 SSE 13 17 7 9 1018.5 1018.5 0.0
19/08:30am 17.5 15.6 13.0 75 2.5 S 15 22 8 12 1018.6 - 0.0
19/08:00am 16.7 15.4 13.6 82 1.7 S 13 20 7 11 1018.6 1018.6 0.0
19/07:30am 16.3 16.2 14.0 86 1.3 S 7 11 4 6 1018.4 - 0.0
19/07:00am 16.0 15.5 13.8 87 1.2 S 9 13 5 7 1018.0 1018.0 0.0
19/06:30am 16.1 16.0 13.8 86 1.3 S 7 11 4 6 1018.0 - 0.0
19/06:00am 16.3 15.8 13.8 85 1.4 S 9 13 5 7 1018.1 1018.1 0.0
19/05:30am 16.3 15.8 13.8 85 1.4 SSE 9 15 5 8 1017.9 - 0.0
19/05:00am 16.1 15.6 13.8 86 1.3 S 9 15 5 8 1018.1 1018.1 0.0
19/04:30am 16.4 16.3 13.9 85 1.4 S 7 9 4 5 1018.1 - 0.0
19/04:00am 16.5 16.6 13.8 84 1.5 S 6 9 3 5 1018.1 1018.1 0.0
19/03:30am 16.7 16.6 13.8 83 1.6 SSE 7 9 4 5 1018.0 - 0.0
19/03:00am 16.9 16.3 13.6 81 1.9 SSE 9 13 5 7 1017.9 1017.9 0.0
19/02:30am 17.0 16.4 13.5 80 2.0 S 9 15 5 8 1018.0 - 0.0
19/02:00am 17.2 16.2 13.3 78 2.2 S 11 17 6 9 1018.0 1018.0 0.0
19/01:30am 17.6 15.8 13.3 76 2.4 SSE 15 22 8 12 1018.0 - 0.0
19/01:00am 17.8 15.5 13.1 74 2.6 SSE 17 26 9 14 1017.9 1017.9 0.0
19/12:30am 18.1 15.6 13.4 74 2.7 S 19 30 10 16 1017.9 - 0.0
19/12:00am 18.4 16.2 13.3 72 2.9 S 17 26 9 14 1018.2 1018.2 0.0
 
Date/Time
WST
Temp
°C
App
Temp
°C
Dew
Point
Rel
Hum
%
Delta-T
°C
Wind Press
QNH
hPa
Press
MSL
hPa
Rain
since 9 am
mm
Dir
 
Spd
km/h
Gust
km/h
Spd
kts
Gust
kts
18/11:30pm 18.9 16.3 13.3 70 3.2 S 19 26 10 14 1018.4 - 0.0
18/11:00pm 19.3 16.6 13.5 69 3.3 S 20 28 11 15 1018.8 1018.8 0.0
18/10:30pm 19.6 17.3 14.0 70 3.2 S 19 26 10 14 1019.1 - 0.0
18/10:00pm 19.9 18.3 14.9 73 2.9 S 17 26 9 14 1019.3 1019.3 0.0
18/09:30pm 20.1 19.2 15.9 77 2.5 S 15 19 8 10 1019.3 - 0.0
18/09:00pm 20.3 20.2 15.9 76 2.6 S 11 17 6 9 1019.2 1019.2 0.0
18/08:30pm 20.5 20.3 15.7 74 2.9 S 11 17 6 9 1019.2 - 0.0
18/08:00pm 20.4 19.9 15.0 71 3.2 S 11 17 6 9 1019.2 1019.2 0.0
18/07:30pm 20.6 20.0 14.7 69 3.5 S 11 19 6 10 1019.1 - 0.0
18/07:00pm 20.8 19.7 14.2 66 3.8 S 13 17 7 9 1018.9 1018.9 0.0
18/06:30pm 21.0 19.8 13.9 64 4.1 S 13 20 7 11 1018.6 - 0.0
18/06:00pm 21.3 19.9 14.5 65 4.0 S 15 22 8 12 1018.5 1018.5 0.0
18/05:30pm 21.6 20.3 14.7 65 4.1 S 15 20 8 11 1018.4 - 0.0
18/05:00pm 22.2 20.8 14.6 62 4.5 SSW 15 22 8 12 1018.2 1018.2 0.0
18/04:30pm 22.8 21.0 14.4 59 4.9 SSW 17 26 9 14 1017.9 - 0.0
18/04:00pm 23.1 21.7 14.4 58 5.1 SSW 15 22 8 12 1018.1 1018.1 0.0
18/03:30pm 23.4 21.8 14.9 59 5.1 SW 17 26 9 14 1018.2 - 0.0
18/03:00pm 22.9 20.3 15.0 61 4.7 WSW 22 30 12 16 1018.4 1018.4 0.0
18/02:30pm 22.8 20.6 14.9 61 4.7 WSW 20 30 11 16 1018.3 - 0.0
18/02:00pm 23.6 21.3 14.6 57 5.3 WSW 20 28 11 15 1018.3 1018.3 0.0
18/01:30pm 24.2 22.9 14.9 56 5.5 W 15 24 8 13 1018.6 - 0.0
18/01:00pm 24.6 23.5 13.2 49 6.6 W 11 15 6 8 1019.1 1019.1 0.0
18/12:30pm 26.7 26.6 13.4 43 7.8 N 6 7 3 4 1019.5 - 0.0
18/12:00pm 25.7 24.8 11.5 41 8.0 ENE 7 17 4 9 1020.0 1020.0 0.0
18/11:30am 25.0 23.3 11.2 42 7.8 ESE 11 19 6 10 1020.4 - 0.0
18/11:00am 24.1 22.2 11.8 46 6.9 ENE 13 19 7 10 1020.8 1020.8 0.0
18/10:30am 23.2 21.5 12.5 51 6.1 ENE 13 22 7 12 1021.1 - 0.0
18/10:00am 23.1 20.7 11.5 48 6.5 ENE 15 26 8 14 1021.4 1021.4 0.0
18/09:30am 21.6 20.1 11.9 54 5.4 E 11 20 6 11 1021.8 - 0.0
18/09:00am 19.1 18.0 11.9 63 4.0 E 9 15 5 8 1021.9 1021.9 0.0
18/08:30am 18.3 16.9 12.1 67 3.4 E 11 19 6 10 1022.2 - 0.0
18/08:00am 17.5 16.9 12.2 71 2.9 E 7 19 4 10 1022.2 1022.2 0.0
18/07:30am 16.6 16.2 12.4 76 2.3 ESE 6 11 3 6 1022.0 - 0.0
18/07:00am 16.4 15.9 12.2 76 2.3 ESE 6 11 3 6 1021.9 1021.9 0.0
18/06:30am 16.3 15.2 12.1 76 2.3 E 9 15 5 8 1021.9 - 0.0
18/06:00am 16.4 15.3 12.0 75 2.4 E 9 17 5 9 1022.0 1022.0 0.0
18/05:30am 16.3 15.2 11.9 75 2.4 E 9 17 5 9 1021.9 - 0.0
18/05:00am 16.2 15.6 11.6 74 2.5 ESE 6 11 3 6 1021.8 1021.8 0.0
18/04:30am 16.4 15.5 11.3 72 2.7 ESE 7 13 4 7 1021.8 - 0.0
18/04:00am 16.5 15.6 11.2 71 2.8 SE 7 13 4 7 1021.7 1021.7 0.0
18/03:30am 16.6 15.3 11.1 70 3.0 SE 9 13 5 7 1021.6 - 0.0
18/03:00am 16.7 15.4 11.2 70 3.0 SE 9 13 5 7 1021.6 1021.6 0.0
18/02:30am 16.9 15.3 11.4 70 3.0 SE 11 15 6 8 1021.8 - 0.0
18/02:00am 17.0 14.7 11.7 71 2.9 SSE 15 20 8 11 1021.9 1021.9 0.0
18/01:30am 17.2 14.6 11.9 71 2.9 SSE 17 22 9 12 1022.0 - 0.0
18/01:00am 17.4 15.2 12.1 71 2.9 SSE 15 22 8 12 1022.2 1022.2 0.0
18/12:30am 17.6 15.4 12.1 70 3.0 SSE 15 22 8 12 1022.3 - 0.0
18/12:00am 18.0 16.2 12.0 68 3.3 SSE 13 20 7 11 1022.3 1022.3 0.0
 
Date/Time
WST
Temp
°C
App
Temp
°C
Dew
Point
Rel
Hum
%
Delta-T
°C
Wind Press
QNH
hPa
Press
MSL
hPa
Rain
since 9 am
mm
Dir
 
Spd
km/h
Gust
km/h
Spd
kts
Gust
kts
17/11:30pm 18.5 15.9 12.0 66 3.6 SSE 17 24 9 13 1022.5 - 0.0
17/11:00pm 18.6 16.9 12.4 67 3.4 SSE 13 22 7 12 1022.5 1022.5 0.0
17/10:30pm 18.7 16.6 12.5 67 3.5 SSE 15 20 8 11 1022.6 - 0.0
17/10:00pm 19.1 17.0 12.4 65 3.7 SSE 15 28 8 15 1022.7 1022.7 0.0
17/09:30pm 19.8 16.8 12.1 61 4.3 S 19 28 10 15 1022.7 - 0.0
17/09:00pm 20.2 17.0 11.9 59 4.6 S 20 28 11 15 1022.5 1022.5 0.0
17/08:30pm 20.6 18.2 12.8 61 4.4 S 17 26 9 14 1022.5 - 0.0
17/08:00pm 20.7 18.9 13.4 63 4.2 S 15 22 8 12 1022.2 1022.2 0.0
17/07:30pm 20.7 19.9 13.9 65 3.9 S 11 19 6 10 1022.2 - 0.0
17/07:00pm 20.8 20.4 14.0 65 3.9 S 9 17 5 9 1021.9 1021.9 0.0
17/06:30pm 20.8 20.2 14.7 68 3.6 S 11 17 6 9 1021.6 - 0.0
17/06:00pm 20.7 19.9 15.0 70 3.3 SSW 13 19 7 10 1021.4 1021.4 0.0
17/05:30pm 20.8 19.8 14.5 67 3.7 SSW 13 19 7 10 1021.2 - 0.0
17/05:00pm 21.1 19.5 14.0 64 4.1 SSW 15 26 8 14 1021.0 1021.0 0.0
17/04:30pm 21.6 19.6 14.0 62 4.4 SW 17 26 9 14 1020.7 - 0.0
17/04:00pm 22.7 21.1 14.0 58 5.1 SW 15 22 8 12 1020.8 1020.8 0.0
17/03:30pm 22.6 20.8 14.4 60 4.8 SW 17 26 9 14 1020.9 - 0.0
17/03:00pm 23.5 21.7 14.5 57 5.3 WSW 17 22 9 12 1021.0 1021.0 0.0
17/02:30pm 22.6 21.5 15.2 63 4.4 WSW 15 20 8 11 1021.1 - 0.0
17/02:00pm 22.3 20.6 14.7 62 4.5 WSW 17 20 9 11 1021.1 1021.1 0.0
17/01:30pm 22.5 20.2 14.1 59 4.9 WSW 19 26 10 14 1021.2 - 0.0
17/01:00pm 23.1 22.7 14.1 57 5.3 W 9 17 5 9 1021.5 1021.5 0.0
17/12:30pm 22.2 21.6 12.2 53 5.6 S 7 11 4 6 1021.7 - 0.0
17/12:00pm 22.0 21.9 13.4 58 4.9 NW 6 9 3 5 1022.0 1022.0 0.0
17/11:30am 21.4 20.5 13.6 61 4.5 NW 11 13 6 7 1022.1 - 0.0
17/11:00am 21.6 21.2 13.0 58 4.9 N 7 9 4 5 1022.2 1022.2 0.0
17/10:30am 21.6 21.6 12.5 56 5.2 NNE 4 6 2 3 1022.5 - 0.0
17/10:00am 22.1 21.6 12.1 53 5.6 E 6 9 3 5 1022.5 1022.5 0.0
17/09:30am 20.6 20.4 11.8 57 4.9 E 4 7 2 4 1022.3 - 0.0
17/09:00am 19.9 19.4 12.2 61 4.3 E 6 7 3 4 1022.4 1022.4 0.0
17/08:30am 17.6 16.8 11.6 68 3.3 E 7 11 4 6 1022.1 - 0.0
17/08:00am 16.6 15.9 11.5 72 2.8 E 6 7 3 4 1021.9 1021.9 0.0
17/07:30am 15.0 15.5 11.6 80 1.8 CALM 0 4 0 2 1021.6 - 0.0
17/07:00am 14.4 14.0 11.2 81 1.7 NE 4 4 2 2 1021.3 1021.3 0.0
17/06:30am 14.7 14.8 11.5 81 1.7 NE 2 4 1 2 1020.9 - 0.0
17/06:00am 15.0 15.1 11.6 80 1.8 NE 2 4 1 2 1020.7 1020.7 0.0
17/05:30am 15.4 15.1 11.6 78 2.0 ESE 4 6 2 3 1020.6 - 0.0
17/05:00am 15.3 15.0 11.5 78 2.0 E 4 6 2 3 1020.5 1020.5 0.0
17/04:30am 15.4 15.5 11.6 78 2.0 ENE 2 4 1 2 1020.3 - 0.0
17/04:00am 15.7 16.0 12.1 79 2.0 NE 2 6 1 3 1020.0 1020.0 0.0
17/03:30am 15.4 15.1 11.6 78 2.0 ESE 4 6 2 3 1020.0 - 0.0
17/03:00am 15.9 15.4 11.9 77 2.2 ESE 6 7 3 4 1020.0 1020.0 0.0
17/02:30am 16.3 16.1 11.7 74 2.5 SE 4 7 2 4 1020.1 - 0.0
17/02:00am 16.4 16.2 11.8 74 2.5 SE 4 7 2 4 1020.2 1020.2 0.0
17/01:30am 16.9 16.2 12.0 73 2.7 SE 7 9 4 5 1020.3 - 0.0
17/01:00am 17.1 16.4 12.0 72 2.8 SSE 7 9 4 5 1020.1 1020.1 0.0
17/12:30am 17.2 16.7 12.5 74 2.6 SE 7 9 4 5 1020.2 - 0.0
17/12:00am 16.8 16.3 12.1 74 2.6 SE 6 7 3 4 1020.3 1020.3 0.0
 
Date/Time
WST
Temp
°C
App
Temp
°C
Dew
Point
Rel
Hum
%
Delta-T
°C
Wind Press
QNH
hPa
Press
MSL
hPa
Rain
since 9 am
mm
Dir
 
Spd
km/h
Gust
km/h
Spd
kts
Gust
kts
16/11:30pm 16.9 16.5 12.4 75 2.5 SE 6 7 3 4 1020.4 - 0.0
16/11:00pm 17.1 16.7 12.4 74 2.6 ESE 6 7 3 4 1020.6 1020.6 0.0

Other Formats:

Comma delimited format used in spreadsheet applications
http://www.bom.gov.au/fwo/IDW60801/IDW60801.94605.axf

JavaScript Object Notation format (JSON) in row-major order
http://www.bom.gov.au/fwo/IDW60801/IDW60801.94605.json